Time;durP1;ratioP1;P1;durP2;ratioP2;P2;SDS_P1;SDS_P2;PMS_P1;PMS_P2;Temp;Humidity;BMP_temperature;BMP_pressure;BME280_temperature;BME280_humidity;BME280_pressure;Samples;Min_cycle;Max_cycle;Signal;HPM_P1;HPM_P2
2023/07/17 00:00:18;;;;;;;;;;;;;;;16.50;70.82;99365.53;5086741;28;5906;-78
2023/07/17 00:02:44;;;;;;;;;;;;;;;16.50;70.86;99373.66;5092329;28;5272;-76
2023/07/17 00:05:11;;;;;;;;;;;;;;;16.51;70.56;99367.16;5087440;28;6218;-77
2023/07/17 00:07:38;;;;;;;;;;;;;;;16.49;70.58;99362.00;5106081;27;5394;-76
2023/07/17 00:10:04;;;;;;;;;;;;;;;16.49;70.39;99362.00;5072687;28;6495;-77
2023/07/17 00:12:31;;;;;;;;;;;;;;;16.51;70.16;99370.69;5072291;28;5176;-75
2023/07/17 00:14:57;;;;;;;;;;;;;;;16.52;70.12;99364.13;5093116;28;5305;-76
2023/07/17 00:17:24;;;;;;;;;;;;;;;16.51;69.93;99362.53;5094659;27;6173;-75
2023/07/17 00:19:51;;;;;;;;;;;;;;;16.52;69.60;99363.34;5094820;27;5534;-75
2023/07/17 00:22:18;;;;;;;;;;;;;;;16.55;69.79;99362.75;5090645;28;5835;-76
2023/07/17 00:24:44;;;;;;;;;;;;;;;16.51;69.77;99362.53;5073580;28;6150;-76
2023/07/17 00:27:11;;;;;;;;;;;;;;;16.53;69.74;99360.34;5091543;27;6163;-75
2023/07/17 00:29:37;;;;;;;;;;;;;;;16.50;69.99;99371.78;5091134;27;6277;-75
2023/07/17 00:32:04;;;;;;;;;;;;;;;16.53;69.99;99364.94;5088611;28;5402;-75
2023/07/17 00:34:30;;;;;;;;;;;;;;;16.51;70.22;99367.16;5093235;27;5148;-77
2023/07/17 00:36:57;;;;;;;;;;;;;;;16.46;69.38;99367.19;5091250;28;5968;-74
2023/07/17 00:39:24;;;;;;;;;;;;;;;16.49;68.82;99361.19;5092267;28;6339;-75
2023/07/17 00:41:51;;;;;;;;;;;;;;;16.51;69.53;99370.69;5088439;27;5425;-77
2023/07/17 00:44:17;;;;;;;;;;;;;;;16.49;69.91;99362.00;5091187;27;5863;-76
2023/07/17 00:46:44;;;;;;;;;;;;;;;16.47;69.69;99366.94;5070359;28;5359;-78
2023/07/17 00:49:12;;;;;;;;;;;;;;;16.50;69.58;99368.25;5091308;28;6030;-76
2023/07/17 00:51:38;;;;;;;;;;;;;;;16.49;69.49;99369.34;5075777;28;5218;-78
2023/07/17 00:54:05;;;;;;;;;;;;;;;16.50;69.73;99366.34;5095170;28;5282;-76
2023/07/17 00:56:31;;;;;;;;;;;;;;;16.50;69.87;99365.53;5089712;28;6323;-78
2023/07/17 00:58:58;;;;;;;;;;;;;;;16.47;70.09;99361.50;5076914;28;6549;-75
2023/07/17 01:01:24;;;;;;;;;;;;;;;16.50;69.66;99363.63;5089708;27;5496;-76
2023/07/17 01:03:51;;;;;;;;;;;;;;;16.50;69.60;99357.38;5074251;28;6274;-76
2023/07/17 01:06:18;;;;;;;;;;;;;;;16.48;69.72;99352.22;5093252;27;5153;-78
2023/07/17 01:08:44;;;;;;;;;;;;;;;16.45;70.03;99352.00;5094946;28;6250;-77
2023/07/17 01:11:11;;;;;;;;;;;;;;;16.47;69.81;99360.66;5091071;27;5213;-77
2023/07/17 01:13:37;;;;;;;;;;;;;;;16.50;69.60;99363.63;5090904;28;5090;-77
2023/07/17 01:16:04;;;;;;;;;;;;;;;16.44;69.85;99362.06;5088897;28;5419;-78
2023/07/17 01:18:30;;;;;;;;;;;;;;;16.45;69.87;99350.09;5091974;28;5339;-78
2023/07/17 01:20:57;;;;;;;;;;;;;;;16.45;69.77;99366.41;5089415;27;6293;-78
2023/07/17 01:23:23;;;;;;;;;;;;;;;16.47;69.80;99376.97;5094737;28;5254;-77
2023/07/17 01:25:50;;;;;;;;;;;;;;;16.49;69.58;99363.91;5070799;28;5206;-76
2023/07/17 01:28:16;;;;;;;;;;;;;;;16.48;69.73;99370.44;5091578;28;5213;-78
2023/07/17 01:30:43;;;;;;;;;;;;;;;16.44;70.03;99369.38;5089343;28;5140;-76
2023/07/17 01:33:09;;;;;;;;;;;;;;;16.49;69.80;99366.63;5091037;27;5400;-76
2023/07/17 01:35:36;;;;;;;;;;;;;;;16.43;70.29;99360.44;5092583;28;5427;-76
2023/07/17 01:38:03;;;;;;;;;;;;;;;16.43;69.96;99360.44;5093559;28;5188;-76
2023/07/17 01:40:29;;;;;;;;;;;;;;;16.47;69.52;99364.22;5079763;28;5325;-75
2023/07/17 01:42:56;;;;;;;;;;;;;;;16.45;69.63;99354.72;5080180;28;5404;-76
2023/07/17 01:45:22;;;;;;;;;;;;;;;16.44;69.73;99361.22;5098527;28;5987;-76
2023/07/17 01:47:49;;;;;;;;;;;;;;;16.48;69.53;99370.44;5092424;28;6617;-76
2023/07/17 01:50:15;;;;;;;;;;;;;;;16.50;69.33;99357.38;5089934;28;5757;-76
2023/07/17 01:52:42;;;;;;;;;;;;;;;16.48;69.24;99367.72;5088972;28;5668;-77
2023/07/17 01:55:08;;;;;;;;;;;;;;;16.48;69.30;99363.09;5105572;27;5802;-78
2023/07/17 01:57:35;;;;;;;;;;;;;;;16.49;68.81;99372.06;5092156;28;5172;-76
2023/07/17 02:00:02;;;;;;;;;;;;;;;16.50;68.94;99370.94;5063490;28;5458;-77
2023/07/17 02:02:29;;;;;;;;;;;;;;;16.45;69.71;99368.31;5083088;28;5477;-76
2023/07/17 02:04:55;;;;;;;;;;;;;;;16.44;69.80;99362.06;5083787;28;5831;-77
2023/07/17 02:07:22;;;;;;;;;;;;;;;16.43;69.41;99359.63;5086084;28;5243;-77
2023/07/17 02:09:48;;;;;;;;;;;;;;;16.44;69.53;99361.22;5079647;28;5473;-77
2023/07/17 02:12:15;;;;;;;;;;;;;;;16.41;70.01;99362.63;5085320;28;5259;-80
2023/07/17 02:14:41;;;;;;;;;;;;;;;16.39;69.87;99362.13;5085197;28;6451;-77
2023/07/17 02:17:08;;;;;;;;;;;;;;;16.41;69.58;99373.47;5065610;28;5797;-76
2023/07/17 02:19:35;;;;;;;;;;;;;;;16.41;69.73;99359.91;5067115;27;5172;-77
2023/07/17 02:22:01;;;;;;;;;;;;;;;16.39;69.95;99361.31;5101734;27;6109;-79
2023/07/17 02:24:28;;;;;;;;;;;;;;;16.38;69.78;99365.91;5085555;28;5128;-77
2023/07/17 02:26:55;;;;;;;;;;;;;;;16.42;69.55;99364.25;5081209;28;5286;-74
2023/07/17 02:29:21;;;;;;;;;;;;;;;16.40;69.96;99362.91;5082662;27;6335;-77
2023/07/17 02:31:48;;;;;;;;;;;;;;;16.39;69.88;99367.53;5098033;27;5865;-77
2023/07/17 02:34:14;;;;;;;;;;;;;;;16.38;69.87;99360.47;5063569;28;5418;-76
2023/07/17 02:36:41;;;;;;;;;;;;;;;16.37;69.80;99367.00;5081209;28;5330;-76
2023/07/17 02:39:08;;;;;;;;;;;;;;;16.37;69.63;99364.28;5083378;28;5790;-77
2023/07/17 02:41:34;;;;;;;;;;;;;;;16.38;69.93;99362.38;5087258;28;6720;-76
2023/07/17 02:44:01;;;;;;;;;;;;;;;16.37;70.14;99347.19;5090811;28;5356;-77
2023/07/17 02:46:27;;;;;;;;;;;;;;;16.37;70.18;99358.88;5102829;27;5205;-78
2023/07/17 02:48:54;;;;;;;;;;;;;;;16.36;70.59;99362.69;5090617;28;5185;-76
2023/07/17 02:51:20;;;;;;;;;;;;;;;16.36;70.13;99349.09;5086021;28;5951;-75
2023/07/17 02:53:47;;;;;;;;;;;;;;;16.36;70.23;99351.81;5093141;28;5447;-76
2023/07/17 02:56:14;;;;;;;;;;;;;;;16.38;69.88;99354.22;5072223;27;5175;-76
2023/07/17 02:58:41;;;;;;;;;;;;;;;16.36;70.01;99362.69;5103775;27;5878;-77
2023/07/17 03:01:07;;;;;;;;;;;;;;;16.37;70.16;99355.34;5088390;28;5461;-76
2023/07/17 03:03:34;;;;;;;;;;;;;;;16.35;69.78;99352.91;5074611;28;6268;-79
2023/07/17 03:06:00;;;;;;;;;;;;;;;16.35;69.85;99359.16;5094624;28;5992;-78
2023/07/17 03:08:27;;;;;;;;;;;;;;;16.36;69.76;99365.41;5091616;27;5400;-77
2023/07/17 03:10:53;;;;;;;;;;;;;;;16.34;69.61;99362.16;5087675;28;5151;-76
2023/07/17 03:13:20;;;;;;;;;;;;;;;16.35;70.23;99361.03;5088393;27;5431;-75
2023/07/17 03:15:47;;;;;;;;;;;;;;;16.34;70.04;99367.59;5086174;28;5390;-75
2023/07/17 03:18:14;;;;;;;;;;;;;;;16.34;70.30;99375.75;5064671;28;5753;-77
2023/07/17 03:20:40;;;;;;;;;;;;;;;16.33;69.76;99380.38;5067019;28;5308;-76
2023/07/17 03:23:07;;;;;;;;;;;;;;;16.37;69.79;99372.44;5083338;28;5768;-76
2023/07/17 03:25:33;;;;;;;;;;;;;;;16.34;69.72;99373.81;5070752;28;5341;-76
2023/07/17 03:28:00;;;;;;;;;;;;;;;16.36;69.58;99373.56;5066751;28;6063;-76
2023/07/17 03:30:27;;;;;;;;;;;;;;;16.33;69.84;99372.22;5083413;27;5295;-77
2023/07/17 03:32:53;;;;;;;;;;;;;;;16.34;69.70;99373.81;5081456;28;6568;-77
2023/07/17 03:35:20;;;;;;;;;;;;;;;16.32;69.69;99367.88;5083816;28;6143;-76
2023/07/17 03:37:46;;;;;;;;;;;;;;;16.31;69.42;99368.97;5081361;28;5343;-77
2023/07/17 03:40:13;;;;;;;;;;;;;;;16.32;69.26;99367.88;5088762;28;5368;-76
2023/07/17 03:42:40;;;;;;;;;;;;;;;16.36;69.06;99376.28;5087536;28;6203;-77
2023/07/17 03:45:07;;;;;;;;;;;;;;;16.32;69.27;99370.59;5093399;28;6369;-76
2023/07/17 03:47:33;;;;;;;;;;;;;;;16.33;69.67;99379.56;5087180;28;5304;-77
2023/07/17 03:50:00;;;;;;;;;;;;;;;16.32;69.46;99386.06;5070185;28;5179;-76
2023/07/17 03:52:26;;;;;;;;;;;;;;;16.31;69.77;99373.59;5085177;28;6145;-79
2023/07/17 03:54:53;;;;;;;;;;;;;;;16.32;69.77;99377.91;5089523;28;5321;-78
2023/07/17 03:57:21;;;;;;;;;;;;;;;16.30;69.39;99378.22;5067689;28;5341;-76
2023/07/17 03:59:48;;;;;;;;;;;;;;;16.35;69.31;99375.47;5084652;28;5270;-74
2023/07/17 04:02:15;;;;;;;;;;;;;;;16.38;69.45;99376.78;5077837;28;5776;-77
2023/07/17 04:04:41;;;;;;;;;;;;;;;16.34;69.46;99378.47;5063911;28;5229;-80
2023/07/17 04:07:08;;;;;;;;;;;;;;;16.31;69.53;99381.75;5078350;28;5614;-76
2023/07/17 04:09:35;;;;;;;;;;;;;;;16.31;69.10;99381.75;5064739;28;5307;-75
2023/07/17 04:12:03;;;;;;;;;;;;;;;16.30;69.29;99385.56;5052576;28;5038;-79
2023/07/17 04:14:54;;;;;;;;;;;;;;;16.31;69.51;99382.56;5043900;28;5254;-77
2023/07/17 04:17:46;;;;;;;;;;;;;;;16.30;69.63;99401.88;5040856;28;5289;-78
2023/07/17 04:20:38;;;;;;;;;;;;;;;16.30;69.58;99391.81;5041284;28;5988;-77
2023/07/17 04:23:30;;;;;;;;;;;;;;;16.32;69.33;99400.50;5044067;28;5980;-75
2023/07/17 04:26:22;;;;;;;;;;;;;;;16.31;69.22;99392.63;5043993;28;5489;-76
2023/07/17 04:29:10;;;;;;;;;;;;;;;16.30;69.35;99402.69;5044095;28;5395;-76
2023/07/17 04:32:01;;;;;;;;;;;;;;;16.29;69.34;99406.47;5045184;28;5697;-78
2023/07/17 04:34:48;;;;;;;;;;;;;;;16.30;69.19;99401.88;5048957;28;6020;-77
2023/07/17 04:37:39;;;;;;;;;;;;;;;16.29;69.35;99395.59;5041685;28;6398;-79
2023/07/17 04:40:26;;;;;;;;;;;;;;;16.29;68.91;99403.75;5044149;28;5154;-76
2023/07/17 04:43:22;;;;;;;;;;;;;;;16.30;69.19;99421.69;5045896;28;5424;-77
2023/07/17 04:46:14;;;;;;;;;;;;;;;16.30;69.77;99405.38;5046381;28;6057;-76
2023/07/17 04:49:06;;;;;;;;;;;;;;;16.31;69.12;99408.91;5047138;28;5853;-78
2023/07/17 04:51:36;;;;;;;;;;;;;;;16.29;69.20;99401.03;5047476;28;5066;-75
2023/07/17 04:54:12;;;;;;;;;;;;;;;16.27;68.73;99411.41;5034614;28;5386;-76
2023/07/17 04:56:59;;;;;;;;;;;;;;;16.29;69.00;99401.03;5052501;28;5406;-77
2023/07/17 04:59:45;;;;;;;;;;;;;;;16.29;69.19;99405.66;5046329;28;5281;-78
2023/07/17 05:02:12;;;;;;;;;;;;;;;16.31;69.23;99411.63;5025733;28;6293;-77
2023/07/17 05:04:39;;;;;;;;;;;;;;;16.29;69.31;99411.91;5046945;28;5386;-78
2023/07/17 05:07:05;;;;;;;;;;;;;;;16.30;69.22;99418.97;5046189;28;5705;-77
2023/07/17 05:09:32;;;;;;;;;;;;;;;16.30;69.48;99415.47;5050654;28;5286;-75
2023/07/17 05:11:59;;;;;;;;;;;;;;;16.30;69.11;99405.38;5065230;28;5247;-77
2023/07/17 05:14:25;;;;;;;;;;;;;;;16.28;69.23;99418.44;5067417;28;6011;-77
2023/07/17 05:16:52;;;;;;;;;;;;;;;16.30;69.24;99413.53;5064667;28;5414;-78
2023/07/17 05:19:18;;;;;;;;;;;;;;;16.29;69.50;99406.47;5069004;28;6120;-78
2023/07/17 05:21:45;;;;;;;;;;;;;;;16.30;69.55;99410.81;5073134;28;5933;-77
2023/07/17 05:24:11;;;;;;;;;;;;;;;16.41;69.48;99424.31;5068854;28;5257;-78
2023/07/17 05:26:38;;;;;;;;;;;;;;;16.37;69.54;99415.91;5071477;28;6153;-78
2023/07/17 05:29:05;;;;;;;;;;;;;;;16.40;69.49;99419.97;5068471;28;6225;-76
2023/07/17 05:31:32;;;;;;;;;;;;;;;16.36;69.06;99414.31;5070950;28;6106;-78
2023/07/17 05:33:58;;;;;;;;;;;;;;;16.40;69.70;99409.91;5070613;28;6270;-75
2023/07/17 05:36:25;;;;;;;;;;;;;;;16.45;69.36;99404.44;5068802;28;5717;-76
2023/07/17 05:38:51;;;;;;;;;;;;;;;16.37;69.04;99415.91;5054378;28;5337;-76
2023/07/17 05:41:18;;;;;;;;;;;;;;;16.31;68.90;99404.28;5058152;28;5975;-76
2023/07/17 05:43:45;;;;;;;;;;;;;;;16.37;68.76;99409.69;5077906;28;6168;-75
2023/07/17 05:46:11;;;;;;;;;;;;;;;16.43;69.35;99406.63;5059554;28;6330;-76
2023/07/17 05:48:38;;;;;;;;;;;;;;;16.49;69.19;99408.19;5075663;28;6390;-77
2023/07/17 05:51:05;;;;;;;;;;;;;;;16.45;69.37;99403.63;5055481;28;6192;-78
2023/07/17 05:53:32;;;;;;;;;;;;;;;16.56;68.66;99416.03;5077139;28;6318;-75
2023/07/17 05:55:58;;;;;;;;;;;;;;;16.43;69.62;99405.81;5075565;28;5283;-76
2023/07/17 05:58:25;;;;;;;;;;;;;;;16.56;68.58;99405.97;5076208;28;6392;-77
2023/07/17 06:00:51;;;;;;;;;;;;;;;16.51;68.94;99402.50;5070002;28;5554;-77
2023/07/17 06:03:19;;;;;;;;;;;;;;;16.44;69.45;99396.56;5070029;28;5136;-77
2023/07/17 06:05:46;;;;;;;;;;;;;;;16.56;67.90;99403.25;5070914;28;5696;-77
2023/07/17 06:08:14;;;;;;;;;;;;;;;16.46;68.56;99406.06;5048607;28;5985;-78
2023/07/17 06:10:41;;;;;;;;;;;;;;;16.32;69.36;99395.06;5068293;28;5952;-77
2023/07/17 06:13:07;;;;;;;;;;;;;;;16.37;69.31;99417.84;5072115;28;5794;-79
2023/07/17 06:15:34;;;;;;;;;;;;;;;16.31;69.72;99414.34;5067848;28;5522;-76
2023/07/17 06:18:00;;;;;;;;;;;;;;;16.27;70.29;99411.41;5067672;28;6046;-76
2023/07/17 06:20:27;;;;;;;;;;;;;;;16.26;70.12;99415.19;5066552;28;5498;-76
2023/07/17 06:22:53;;;;;;;;;;;;;;;16.24;70.27;99413.88;5052105;28;5176;-76
2023/07/17 06:25:20;;;;;;;;;;;;;;;16.26;70.42;99425.25;5070633;28;5454;-77
2023/07/17 06:27:47;;;;;;;;;;;;;;;16.25;70.36;99413.56;5071416;28;5504;-79
2023/07/17 06:30:14;;;;;;;;;;;;;;;16.25;70.37;99418.19;5070697;28;5445;-76
2023/07/17 06:32:40;;;;;;;;;;;;;;;16.21;70.26;99420.69;5066126;28;5195;-75
2023/07/17 06:35:07;;;;;;;;;;;;;;;16.25;70.60;99416.28;5069357;28;5297;-75
2023/07/17 06:37:33;;;;;;;;;;;;;;;16.23;70.47;99423.91;5079872;28;5936;-76
2023/07/17 06:40:00;;;;;;;;;;;;;;;16.23;70.52;99426.63;5071010;28;5818;-77
2023/07/17 06:42:27;;;;;;;;;;;;;;;16.23;70.52;99415.75;5065698;28;5246;-76
2023/07/17 06:44:53;;;;;;;;;;;;;;;16.24;69.92;99417.41;5072623;28;5325;-75
2023/07/17 06:47:20;;;;;;;;;;;;;;;16.24;70.40;99419.31;5060217;28;6073;-75
2023/07/17 06:49:46;;;;;;;;;;;;;;;16.26;70.17;99404.31;5068213;28;6055;-77
2023/07/17 06:52:13;;;;;;;;;;;;;;;16.31;70.25;99408.91;5069692;28;5110;-77
2023/07/17 06:54:40;;;;;;;;;;;;;;;16.33;70.23;99404.81;5055076;28;5392;-78
2023/07/17 06:57:06;;;;;;;;;;;;;;;16.29;70.17;99408.38;5073682;28;5243;-77
2023/07/17 06:59:33;;;;;;;;;;;;;;;16.25;70.22;99416.28;5054322;28;5702;-76
2023/07/17 07:01:59;;;;;;;;;;;;;;;16.24;69.97;99411.16;5055893;28;5447;-78
2023/07/17 07:04:26;;;;;;;;;;;;;;;16.25;70.18;99418.19;5073205;28;5477;-77
2023/07/17 07:06:52;;;;;;;;;;;;;;;16.26;69.92;99409.75;5068152;28;5304;-78
2023/07/17 07:09:19;;;;;;;;;;;;;;;16.24;70.13;99411.16;5073268;28;5475;-78
2023/07/17 07:11:46;;;;;;;;;;;;;;;16.27;70.21;99411.41;5075745;28;5392;-78
2023/07/17 07:14:13;;;;;;;;;;;;;;;16.26;70.07;99412.47;5055527;28;6013;-77
2023/07/17 07:16:40;;;;;;;;;;;;;;;16.23;69.92;99421.19;5051552;28;5355;-78
2023/07/17 07:19:06;;;;;;;;;;;;;;;16.24;70.05;99422.03;5071326;28;5387;-79
2023/07/17 07:21:33;;;;;;;;;;;;;;;16.20;70.07;99413.63;5052638;28;6078;-76
2023/07/17 07:24:00;;;;;;;;;;;;;;;16.24;70.01;99413.88;5063645;28;6006;-78
2023/07/17 07:26:26;;;;;;;;;;;;;;;16.24;69.86;99409.25;5065552;28;5375;-77
2023/07/17 07:28:53;;;;;;;;;;;;;;;16.26;69.73;99436.91;5053454;28;5478;-77
2023/07/17 07:31:19;;;;;;;;;;;;;;;16.24;69.92;99425.56;5068246;28;6068;-75
2023/07/17 07:33:46;;;;;;;;;;;;;;;16.23;69.91;99418.47;5068934;28;5179;-76
2023/07/17 07:36:13;;;;;;;;;;;;;;;16.23;70.14;99428.53;5065658;28;6187;-75
2023/07/17 07:38:39;;;;;;;;;;;;;;;16.22;69.64;99424.22;5073560;28;5254;-79
2023/07/17 07:41:06;;;;;;;;;;;;;;;16.20;69.89;99427.19;5065240;28;5348;-77
2023/07/17 07:43:32;;;;;;;;;;;;;;;16.27;69.54;99429.59;5076887;28;6491;-76
2023/07/17 07:45:59;;;;;;;;;;;;;;;16.26;69.36;99420.63;5074643;28;5324;-75
2023/07/17 07:48:25;;;;;;;;;;;;;;;16.25;69.91;99429.06;5075743;28;5456;-75
2023/07/17 07:50:52;;;;;;;;;;;;;;;16.22;69.33;99432.34;5072225;28;6050;-74
2023/07/17 07:53:18;;;;;;;;;;;;;;;16.26;69.24;99431.50;5059226;28;5463;-74
2023/07/17 07:55:45;;;;;;;;;;;;;;;16.21;69.35;99441.63;5054742;28;5350;-76
2023/07/17 07:58:11;;;;;;;;;;;;;;;16.27;69.11;99424.19;5074529;28;5535;-78
2023/07/17 08:00:38;;;;;;;;;;;;;;;16.30;69.00;99415.47;5066863;28;5969;-76
2023/07/17 08:03:04;;;;;;;;;;;;;;;16.26;69.42;99428.78;5072856;28;5553;-77
2023/07/17 08:05:40;;;;;;;;;;;;;;;16.34;69.52;99422.72;5053055;28;5295;-78
2023/07/17 08:08:07;;;;;;;;;;;;;;;16.26;69.33;99422.53;5067528;28;5331;-79
2023/07/17 08:10:37;;;;;;;;;;;;;;;16.28;69.46;99431.22;5050574;28;5197;-75
2023/07/17 08:13:05;;;;;;;;;;;;;;;16.24;69.59;99430.97;5054788;28;5426;-75
2023/07/17 08:15:32;;;;;;;;;;;;;;;16.27;69.53;99426.91;5071303;28;6275;-76
2023/07/17 08:17:58;;;;;;;;;;;;;;;16.24;69.33;99432.91;5070186;28;6274;-76
2023/07/17 08:20:25;;;;;;;;;;;;;;;16.21;69.31;99430.75;5056726;28;5425;-76
2023/07/17 08:22:55;;;;;;;;;;;;;;;16.21;69.06;99423.41;5040236;28;5082;-76
2023/07/17 08:25:21;;;;;;;;;;;;;;;16.22;68.77;99422.28;5059285;28;5334;-78
2023/07/17 08:27:48;;;;;;;;;;;;;;;16.20;69.05;99434.53;5058971;28;6310;-76
2023/07/17 08:30:15;;;;;;;;;;;;;;;16.19;70.07;99428.31;5040798;28;5269;-78
2023/07/17 08:32:42;;;;;;;;;;;;;;;16.23;69.35;99431.25;5058213;28;5183;-76
2023/07/17 08:35:08;;;;;;;;;;;;;;;16.22;69.05;99432.34;5061267;28;5094;-76
2023/07/17 08:37:35;;;;;;;;;;;;;;;16.23;69.38;99439.41;5060026;28;5344;-77
2023/07/17 08:40:02;;;;;;;;;;;;;;;16.22;69.37;99441.31;5063997;28;5351;-74
2023/07/17 08:42:30;;;;;;;;;;;;;;;16.20;69.43;99439.97;5065179;28;5376;-76
2023/07/17 08:44:58;;;;;;;;;;;;;;;16.19;69.32;99444.59;5069322;28;5456;-75
2023/07/17 08:47:24;;;;;;;;;;;;;;;16.20;69.43;99448.13;5075297;28;5399;-76
2023/07/17 08:49:51;;;;;;;;;;;;;;;16.19;69.33;99436.44;5073556;28;5343;-77
2023/07/17 08:52:17;;;;;;;;;;;;;;;16.20;69.08;99443.50;5072769;28;5446;-77
2023/07/17 08:54:44;;;;;;;;;;;;;;;16.20;69.01;99439.97;5072373;28;5345;-79
2023/07/17 08:57:10;;;;;;;;;;;;;;;16.20;68.97;99437.25;5067981;28;5530;-78
2023/07/17 08:59:37;;;;;;;;;;;;;;;16.19;69.15;99454.66;5066054;28;5220;-76
2023/07/17 09:02:05;;;;;;;;;;;;;;;16.19;68.96;99447.31;5071166;28;5610;-77
2023/07/17 09:04:31;;;;;;;;;;;;;;;16.20;68.76;99448.94;5061167;28;5781;-78
2023/07/17 09:06:58;;;;;;;;;;;;;;;16.20;69.08;99451.63;5046154;28;5734;-77
2023/07/17 09:09:25;;;;;;;;;;;;;;;16.22;68.99;99443.22;5063275;28;6272;-76
2023/07/17 09:11:52;;;;;;;;;;;;;;;16.22;68.83;99444.03;5075800;27;5145;-77
2023/07/17 09:14:20;;;;;;;;;;;;;;;16.21;68.82;99456.00;5084766;27;5510;-80
2023/07/17 09:16:48;;;;;;;;;;;;;;;16.22;68.79;99448.66;5082377;27;5116;-77
2023/07/17 09:19:14;;;;;;;;;;;;;;;16.21;68.78;99460.63;5065059;28;5240;-76
2023/07/17 09:21:41;;;;;;;;;;;;;;;16.21;68.79;99457.91;5087992;27;5625;-77
2023/07/17 09:24:08;;;;;;;;;;;;;;;16.20;68.79;99462.50;5097472;27;5150;-77
2023/07/17 09:26:34;;;;;;;;;;;;;;;16.22;68.71;99456.81;5094711;28;5398;-76
2023/07/17 09:29:01;;;;;;;;;;;;;;;16.21;68.78;99453.28;5097745;27;5504;-77
2023/07/17 09:31:28;;;;;;;;;;;;;;;16.22;68.79;99463.03;5098342;28;5230;-76
2023/07/17 09:33:54;;;;;;;;;;;;;;;16.21;68.76;99453.28;5098805;28;5497;-76
2023/07/17 09:36:21;;;;;;;;;;;;;;;16.23;68.82;99453.78;5081641;28;5390;-75
2023/07/17 09:38:54;;;;;;;;;;;;;;;16.22;68.74;99454.91;5100352;28;5082;-75
2023/07/17 09:41:23;;;;;;;;;;;;;;;16.22;68.81;99452.19;5095843;28;5436;-74
2023/07/17 09:43:50;;;;;;;;;;;;;;;16.23;68.72;99461.94;5078343;28;5511;-78
2023/07/17 09:46:19;;;;;;;;;;;;;;;16.22;68.81;99457.63;5108082;28;5278;-75
2023/07/17 09:48:45;;;;;;;;;;;;;;;16.22;68.72;99452.19;5091683;27;1994;-77
2023/07/17 09:51:12;;;;;;;;;;;;;;;16.23;68.57;99451.06;5099712;27;4678;-77
2023/07/17 09:53:39;;;;;;;;;;;;;;;16.23;68.47;99464.66;5086941;28;2216;-76
2023/07/17 09:56:08;;;;;;;;;;;;;;;16.23;68.66;99452.97;5101618;27;2220;-76
2023/07/17 09:58:34;;;;;;;;;;;;;;;16.23;68.64;99448.34;5099588;27;2175;-76
2023/07/17 10:01:01;;;;;;;;;;;;;;;16.25;68.62;99453.53;5098486;27;2111;-76
2023/07/17 10:03:28;;;;;;;;;;;;;;;16.24;68.40;99447.28;5098192;27;4596;-76
2023/07/17 10:05:55;;;;;;;;;;;;;;;16.25;68.49;99450.81;5114060;27;2224;-77
2023/07/17 10:08:21;;;;;;;;;;;;;;;16.25;68.61;99450.81;5100664;27;2199;-78
2023/07/17 10:10:48;;;;;;;;;;;;;;;16.24;68.61;99460.06;5098031;27;2076;-76
2023/07/17 10:13:15;;;;;;;;;;;;;;;16.24;68.75;99452.72;5094482;27;2550;-76
2023/07/17 10:15:41;;;;;;;;;;;;;;;16.25;68.68;99451.59;5078221;28;2528;-78
2023/07/17 10:18:10;;;;;;;;;;;;;;;16.25;68.40;99443.47;5082024;28;2175;-75
2023/07/17 10:20:42;;;;;;;;;;;;;;;16.27;68.53;99452.16;5098227;27;2188;-78
2023/07/17 10:23:08;;;;;;;;;;;;;;;16.27;68.49;99459.50;5100964;27;2256;-76
2023/07/17 10:25:35;;;;;;;;;;;;;;;16.26;68.73;99447.78;5080925;27;2169;-76
2023/07/17 10:28:02;;;;;;;;;;;;;;;16.26;68.59;99444.25;5095383;27;2206;-76
2023/07/17 10:30:28;;;;;;;;;;;;;;;16.29;68.50;99449.13;5092639;27;2104;-75
2023/07/17 10:32:55;;;;;;;;;;;;;;;16.27;68.54;99460.28;5093890;28;2562;-79
2023/07/17 10:35:21;;;;;;;;;;;;;;;16.29;68.51;99460.00;5112958;27;2219;-77
2023/07/17 10:37:48;;;;;;;;;;;;;;;16.29;68.46;99462.72;5109713;27;4642;-77
2023/07/17 10:40:19;;;;;;;;;;;;;;;16.27;68.37;99457.59;5104391;28;5144;-75
2023/07/17 10:42:46;;;;;;;;;;;;;;;16.28;68.43;99463.81;5106326;28;1914;-76
2023/07/17 10:45:12;;;;;;;;;;;;;;;16.28;68.46;99458.38;5098750;28;5786;-76
2023/07/17 10:47:39;;;;;;;;;;;;;;;16.29;68.40;99457.28;5088154;28;5323;-78
2023/07/17 10:50:06;;;;;;;;;;;;;;;16.30;68.34;99440.72;5072157;27;5521;-75
2023/07/17 10:52:32;;;;;;;;;;;;;;;16.28;68.47;99437.47;5094592;28;5630;-76
2023/07/17 10:54:59;;;;;;;;;;;;;;;16.32;68.45;99441.25;5089207;28;6074;-76
2023/07/17 10:57:25;;;;;;;;;;;;;;;16.29;68.59;99460.00;5091172;28;5145;-78
2023/07/17 10:59:52;;;;;;;;;;;;;;;16.30;68.52;99445.34;5072416;28;5588;-76
2023/07/17 11:02:19;;;;;;;;;;;;;;;16.29;68.49;99444.50;5088781;27;6285;-75
2023/07/17 11:04:45;;;;;;;;;;;;;;;16.30;68.59;99448.84;5090002;28;5318;-75
2023/07/17 11:07:12;;;;;;;;;;;;;;;16.31;68.51;99460.53;5091335;28;6026;-75
2023/07/17 11:09:39;;;;;;;;;;;;;;;16.30;68.64;99456.22;5090107;28;5435;-76
2023/07/17 11:12:06;;;;;;;;;;;;;;;16.30;68.51;99457.00;5069746;28;5274;-75
2023/07/17 11:14:32;;;;;;;;;;;;;;;16.31;68.50;99464.06;5069044;28;5413;-78
2023/07/17 11:16:59;;;;;;;;;;;;;;;16.30;68.51;99470.59;5071445;28;5176;-77
2023/07/17 11:19:26;;;;;;;;;;;;;;;16.30;68.59;99462.44;5068881;28;6237;-76
2023/07/17 11:21:54;;;;;;;;;;;;;;;16.32;68.64;99465.69;5076738;28;5263;-76
2023/07/17 11:24:23;;;;;;;;;;;;;;;16.34;68.63;99470.84;5085305;28;5160;-75
2023/07/17 11:26:50;;;;;;;;;;;;;;;16.33;68.61;99477.38;5054138;28;5173;-76
2023/07/17 11:29:18;;;;;;;;;;;;;;;16.32;68.44;99475.72;5073819;28;5530;-76
2023/07/17 11:31:45;;;;;;;;;;;;;;;16.30;68.61;99473.31;5067427;28;6570;-76
2023/07/17 11:34:12;;;;;;;;;;;;;;;16.31;68.68;99469.50;5071745;28;5046;-78
2023/07/17 11:36:39;;;;;;;;;;;;;;;16.30;68.76;99481.47;5061173;28;5460;-76
2023/07/17 11:39:05;;;;;;;;;;;;;;;16.32;68.83;99464.88;5061073;28;5067;-75
2023/07/17 11:41:32;;;;;;;;;;;;;;;16.43;70.79;99449.28;5059045;28;5566;-74
2023/07/17 11:43:59;;;;;;;;;;;;;;;16.46;69.08;99490.28;5058932;28;5448;-77
2023/07/17 11:46:25;;;;;;;;;;;;;;;16.37;69.02;99451.25;5064233;28;5389;-77
2023/07/17 11:48:52;;;;;;;;;;;;;;;16.34;68.77;99463.50;5068852;28;5374;-77
2023/07/17 11:51:18;;;;;;;;;;;;;;;16.35;68.84;99453.44;5072889;28;5301;-77
2023/07/17 11:53:45;;;;;;;;;;;;;;;16.33;68.75;99451.00;5069985;28;5321;-77
2023/07/17 11:56:11;;;;;;;;;;;;;;;16.33;68.83;99453.72;5042723;28;5179;-74
2023/07/17 11:58:38;;;;;;;;;;;;;;;16.33;68.83;99450.19;5060559;28;5585;-78
2023/07/17 12:01:05;;;;;;;;;;;;;;;16.33;68.83;99453.72;5065612;28;5234;-77
2023/07/17 12:03:32;;;;;;;;;;;;;;;16.34;68.90;99458.06;5072055;28;5384;-76
2023/07/17 12:05:58;;;;;;;;;;;;;;;16.35;68.83;99458.84;5074668;28;5939;-78
2023/07/17 12:08:25;;;;;;;;;;;;;;;16.36;68.80;99457.78;5077081;28;5285;-81
2023/07/17 12:10:51;;;;;;;;;;;;;;;16.36;68.71;99457.78;5074970;28;5399;-76
2023/07/17 12:13:18;;;;;;;;;;;;;;;16.36;68.73;99449.63;5075014;28;5332;-78
2023/07/17 12:15:44;;;;;;;;;;;;;;;16.36;68.70;99457.78;5075167;28;5287;-78
2023/07/17 12:18:11;;;;;;;;;;;;;;;16.38;68.62;99460.19;5073760;28;5322;-77
2023/07/17 12:20:38;;;;;;;;;;;;;;;16.37;68.56;99455.88;5073165;28;5120;-78
2023/07/17 12:23:05;;;;;;;;;;;;;;;16.37;68.64;99455.88;5073260;28;5404;-77
2023/07/17 12:25:32;;;;;;;;;;;;;;;16.37;68.79;99466.75;5050668;28;5291;-80
2023/07/17 12:27:59;;;;;;;;;;;;;;;16.38;68.57;99466.44;5065007;28;5201;-78
2023/07/17 12:30:26;;;;;;;;;;;;;;;16.37;68.57;99459.41;5043162;28;6044;-79
2023/07/17 12:32:52;;;;;;;;;;;;;;;16.38;68.53;99458.28;5055628;28;5168;-76
2023/07/17 12:35:19;;;;;;;;;;;;;;;16.39;68.57;99459.13;5074965;28;5499;-77
2023/07/17 12:37:45;;;;;;;;;;;;;;;16.38;68.58;99452.84;5055344;28;5326;-77
2023/07/17 12:40:12;;;;;;;;;;;;;;;16.39;68.54;99453.69;5074272;28;5323;-78
2023/07/17 12:42:38;;;;;;;;;;;;;;;16.39;68.57;99459.13;5072338;28;5218;-80
2023/07/17 12:45:05;;;;;;;;;;;;;;;16.38;68.61;99458.28;5072222;28;5882;-77
2023/07/17 12:47:32;;;;;;;;;;;;;;;16.38;68.54;99444.69;5070062;28;5857;-77
2023/07/17 12:49:58;;;;;;;;;;;;;;;16.39;68.62;99451.78;5063375;28;5255;-75
2023/07/17 12:52:26;;;;;;;;;;;;;;;16.40;68.40;99449.88;5045932;28;5203;-77
2023/07/17 12:54:52;;;;;;;;;;;;;;;16.39;68.59;99442.81;5070179;28;5417;-76
2023/07/17 12:57:19;;;;;;;;;;;;;;;16.39;68.55;99446.34;5059717;28;5561;-75
2023/07/17 12:59:46;;;;;;;;;;;;;;;16.40;68.65;99452.59;5064642;28;5243;-76